sensor_id;sensor_type;location;lat;lon;timestamp;temperature;humidity
1347;DHT22;667;48.796;9.480;2023-06-14T00:00:11;18.10;49.40
1347;DHT22;667;48.796;9.480;2023-06-14T00:02:39;18.00;49.30
1347;DHT22;667;48.796;9.480;2023-06-14T00:05:05;17.90;49.40
1347;DHT22;667;48.796;9.480;2023-06-14T00:07:35;17.90;49.70
1347;DHT22;667;48.796;9.480;2023-06-14T00:10:02;17.80;49.80
1347;DHT22;667;48.796;9.480;2023-06-14T00:12:28;17.80;50.10
1347;DHT22;667;48.796;9.480;2023-06-14T00:14:54;17.70;50.20
1347;DHT22;667;48.796;9.480;2023-06-14T00:17:20;17.70;50.40
1347;DHT22;667;48.796;9.480;2023-06-14T00:19:46;17.60;50.40
1347;DHT22;667;48.796;9.480;2023-06-14T00:22:11;17.60;50.50
1347;DHT22;667;48.796;9.480;2023-06-14T00:24:37;17.50;50.50
1347;DHT22;667;48.796;9.480;2023-06-14T00:27:03;17.50;50.60
1347;DHT22;667;48.796;9.480;2023-06-14T00:29:29;17.50;50.50
1347;DHT22;667;48.796;9.480;2023-06-14T00:31:54;17.50;50.70
1347;DHT22;667;48.796;9.480;2023-06-14T00:34:20;17.40;50.80
1347;DHT22;667;48.796;9.480;2023-06-14T00:36:45;17.40;50.70
1347;DHT22;667;48.796;9.480;2023-06-14T00:39:11;17.30;50.90
1347;DHT22;667;48.796;9.480;2023-06-14T00:41:37;17.30;51.00
1347;DHT22;667;48.796;9.480;2023-06-14T00:44:05;17.30;51.30
1347;DHT22;667;48.796;9.480;2023-06-14T00:46:38;17.20;51.30
1347;DHT22;667;48.796;9.480;2023-06-14T00:49:15;17.20;51.60
1347;DHT22;667;48.796;9.480;2023-06-14T00:52:04;17.20;51.80
1347;DHT22;667;48.796;9.480;2023-06-14T00:54:41;17.10;51.80
1347;DHT22;667;48.796;9.480;2023-06-14T00:57:13;17.10;52.00
1347;DHT22;667;48.796;9.480;2023-06-14T00:59:48;17.00;52.00
1347;DHT22;667;48.796;9.480;2023-06-14T01:02:36;17.00;52.10
1347;DHT22;667;48.796;9.480;2023-06-14T01:05:10;17.00;52.30
1347;DHT22;667;48.796;9.480;2023-06-14T01:11:12;16.90;52.50
1347;DHT22;667;48.796;9.480;2023-06-14T01:13:50;16.80;52.40
1347;DHT22;667;48.796;9.480;2023-06-14T01:16:22;16.80;52.50
1347;DHT22;667;48.796;9.480;2023-06-14T01:18:52;16.70;52.60
1347;DHT22;667;48.796;9.480;2023-06-14T01:21:29;16.70;52.60
1347;DHT22;667;48.796;9.480;2023-06-14T01:24:10;16.60;52.70
1347;DHT22;667;48.796;9.480;2023-06-14T01:26:45;16.60;52.90
1347;DHT22;667;48.796;9.480;2023-06-14T01:29:20;16.60;53.10
1347;DHT22;667;48.796;9.480;2023-06-14T01:31:55;16.60;53.10
1347;DHT22;667;48.796;9.480;2023-06-14T01:34:27;16.60;53.20
1347;DHT22;667;48.796;9.480;2023-06-14T01:37:02;16.50;53.10
1347;DHT22;667;48.796;9.480;2023-06-14T01:39:37;16.50;53.30
1347;DHT22;667;48.796;9.480;2023-06-14T01:42:10;16.40;53.40
1347;DHT22;667;48.796;9.480;2023-06-14T01:44:43;16.40;53.30
1347;DHT22;667;48.796;9.480;2023-06-14T01:47:22;16.40;53.40
1347;DHT22;667;48.796;9.480;2023-06-14T01:50:03;16.30;53.40
1347;DHT22;667;48.796;9.480;2023-06-14T01:52:40;16.30;53.40
1347;DHT22;667;48.796;9.480;2023-06-14T01:55:18;16.30;53.50
1347;DHT22;667;48.796;9.480;2023-06-14T01:57:53;16.30;53.70
1347;DHT22;667;48.796;9.480;2023-06-14T02:00:25;16.20;53.50
1347;DHT22;667;48.796;9.480;2023-06-14T02:03:08;16.20;53.50
1347;DHT22;667;48.796;9.480;2023-06-14T02:05:37;16.20;53.80
1347;DHT22;667;48.796;9.480;2023-06-14T02:08:08;16.20;53.90
1347;DHT22;667;48.796;9.480;2023-06-14T02:10:40;16.10;54.00
1347;DHT22;667;48.796;9.480;2023-06-14T02:13:14;16.10;54.00
1347;DHT22;667;48.796;9.480;2023-06-14T02:15:44;16.10;54.10
1347;DHT22;667;48.796;9.480;2023-06-14T02:18:20;16.00;54.10
1347;DHT22;667;48.796;9.480;2023-06-14T02:20:53;16.00;54.20
1347;DHT22;667;48.796;9.480;2023-06-14T02:23:24;16.00;54.30
1347;DHT22;667;48.796;9.480;2023-06-14T02:26:00;16.00;54.20
1347;DHT22;667;48.796;9.480;2023-06-14T02:28:32;15.90;54.20
1347;DHT22;667;48.796;9.480;2023-06-14T02:31:09;15.90;54.20
1347;DHT22;667;48.796;9.480;2023-06-14T02:33:37;15.90;54.10
1347;DHT22;667;48.796;9.480;2023-06-14T02:36:11;15.90;54.10
1347;DHT22;667;48.796;9.480;2023-06-14T02:38:50;15.90;54.10
1347;DHT22;667;48.796;9.480;2023-06-14T02:41:21;15.90;54.10
1347;DHT22;667;48.796;9.480;2023-06-14T02:43:53;15.90;54.00
1347;DHT22;667;48.796;9.480;2023-06-14T02:46:27;15.90;54.20
1347;DHT22;667;48.796;9.480;2023-06-14T02:48:58;15.90;54.20
1347;DHT22;667;48.796;9.480;2023-06-14T02:51:37;15.90;54.30
1347;DHT22;667;48.796;9.480;2023-06-14T02:54:08;15.90;54.50
1347;DHT22;667;48.796;9.480;2023-06-14T02:56:37;15.80;54.60
1347;DHT22;667;48.796;9.480;2023-06-14T02:59:07;15.80;54.60
1347;DHT22;667;48.796;9.480;2023-06-14T03:01:39;15.80;54.80
1347;DHT22;667;48.796;9.480;2023-06-14T03:04:17;15.70;54.80
1347;DHT22;667;48.796;9.480;2023-06-14T03:07:00;15.70;55.00
1347;DHT22;667;48.796;9.480;2023-06-14T03:09:43;15.70;54.90
1347;DHT22;667;48.796;9.480;2023-06-14T03:12:29;15.70;54.90
1347;DHT22;667;48.796;9.480;2023-06-14T03:15:05;15.60;54.90
1347;DHT22;667;48.796;9.480;2023-06-14T03:17:59;15.60;55.20
1347;DHT22;667;48.796;9.480;2023-06-14T03:20:30;15.50;55.30
1347;DHT22;667;48.796;9.480;2023-06-14T03:23:06;15.50;55.40
1347;DHT22;667;48.796;9.480;2023-06-14T03:25:46;15.50;56.20
1347;DHT22;667;48.796;9.480;2023-06-14T03:28:25;15.40;55.60
1347;DHT22;667;48.796;9.480;2023-06-14T03:31:02;15.40;55.80
1347;DHT22;667;48.796;9.480;2023-06-14T03:33:34;15.40;55.80
1347;DHT22;667;48.796;9.480;2023-06-14T03:36:08;15.40;55.90
1347;DHT22;667;48.796;9.480;2023-06-14T03:38:46;15.40;55.80
1347;DHT22;667;48.796;9.480;2023-06-14T03:41:21;15.40;55.90
1347;DHT22;667;48.796;9.480;2023-06-14T03:43:52;15.40;56.00
1347;DHT22;667;48.796;9.480;2023-06-14T03:46:21;15.30;56.10
1347;DHT22;667;48.796;9.480;2023-06-14T03:49:10;15.30;56.20
1347;DHT22;667;48.796;9.480;2023-06-14T03:51:40;15.30;56.20
1347;DHT22;667;48.796;9.480;2023-06-14T03:54:21;15.30;56.30
1347;DHT22;667;48.796;9.480;2023-06-14T03:56:53;15.30;56.50
1347;DHT22;667;48.796;9.480;2023-06-14T03:59:25;15.30;56.50
1347;DHT22;667;48.796;9.480;2023-06-14T04:01:54;15.30;56.40
1347;DHT22;667;48.796;9.480;2023-06-14T04:04:28;15.30;56.30
1347;DHT22;667;48.796;9.480;2023-06-14T04:07:09;15.30;56.30
1347;DHT22;667;48.796;9.480;2023-06-14T04:09:41;15.30;56.50
1347;DHT22;667;48.796;9.480;2023-06-14T04:12:13;15.30;56.60
1347;DHT22;667;48.796;9.480;2023-06-14T04:14:45;15.30;56.60
1347;DHT22;667;48.796;9.480;2023-06-14T04:17:19;15.40;56.40
1347;DHT22;667;48.796;9.480;2023-06-14T04:19:53;15.40;56.40
1347;DHT22;667;48.796;9.480;2023-06-14T04:22:30;15.40;56.40
1347;DHT22;667;48.796;9.480;2023-06-14T04:24:59;15.50;56.50
1347;DHT22;667;48.796;9.480;2023-06-14T04:27:34;15.50;56.50
1347;DHT22;667;48.796;9.480;2023-06-14T04:30:08;15.50;56.40
1347;DHT22;667;48.796;9.480;2023-06-14T04:32:47;15.60;56.50
1347;DHT22;667;48.796;9.480;2023-06-14T04:35:17;15.60;56.80
1347;DHT22;667;48.796;9.480;2023-06-14T04:37:51;15.60;56.70
1347;DHT22;667;48.796;9.480;2023-06-14T04:40:25;15.60;56.50
1347;DHT22;667;48.796;9.480;2023-06-14T04:42:55;15.70;56.80
1347;DHT22;667;48.796;9.480;2023-06-14T04:45:25;15.70;57.00
1347;DHT22;667;48.796;9.480;2023-06-14T04:48:02;15.80;57.30
1347;DHT22;667;48.796;9.480;2023-06-14T04:50:46;15.90;57.50
1347;DHT22;667;48.796;9.480;2023-06-14T04:53:21;16.00;57.30
1347;DHT22;667;48.796;9.480;2023-06-14T04:55:55;16.00;57.00
1347;DHT22;667;48.796;9.480;2023-06-14T04:58:26;16.10;56.70
1347;DHT22;667;48.796;9.480;2023-06-14T05:00:56;16.20;57.00
1347;DHT22;667;48.796;9.480;2023-06-14T05:06:22;16.30;57.00
1347;DHT22;667;48.796;9.480;2023-06-14T05:08:55;16.40;56.70
1347;DHT22;667;48.796;9.480;2023-06-14T05:11:29;16.40;56.70
1347;DHT22;667;48.796;9.480;2023-06-14T05:14:01;16.50;56.40
1347;DHT22;667;48.796;9.480;2023-06-14T05:16:35;16.60;56.20
1347;DHT22;667;48.796;9.480;2023-06-14T05:19:06;16.70;56.60
1347;DHT22;667;48.796;9.480;2023-06-14T05:21:51;16.80;57.00
1347;DHT22;667;48.796;9.480;2023-06-14T05:24:21;16.80;56.80
1347;DHT22;667;48.796;9.480;2023-06-14T05:26:56;17.00;56.70
1347;DHT22;667;48.796;9.480;2023-06-14T05:29:27;17.10;56.60
1347;DHT22;667;48.796;9.480;2023-06-14T05:32:02;17.10;56.70
1347;DHT22;667;48.796;9.480;2023-06-14T05:34:40;17.20;56.60
1347;DHT22;667;48.796;9.480;2023-06-14T05:37:13;17.30;55.40
1347;DHT22;667;48.796;9.480;2023-06-14T05:39:43;17.40;56.00
1347;DHT22;667;48.796;9.480;2023-06-14T05:42:16;17.50;56.00
1347;DHT22;667;48.796;9.480;2023-06-14T05:44:49;17.60;54.80
1347;DHT22;667;48.796;9.480;2023-06-14T05:47:17;17.60;54.60
1347;DHT22;667;48.796;9.480;2023-06-14T05:49:47;17.70;54.30
1347;DHT22;667;48.796;9.480;2023-06-14T05:52:17;17.80;54.70
1347;DHT22;667;48.796;9.480;2023-06-14T05:54:52;17.90;54.60
1347;DHT22;667;48.796;9.480;2023-06-14T05:57:23;18.00;54.20
1347;DHT22;667;48.796;9.480;2023-06-14T05:59:52;18.10;53.50
1347;DHT22;667;48.796;9.480;2023-06-14T06:02:27;18.20;53.40
1347;DHT22;667;48.796;9.480;2023-06-14T06:05:03;18.30;53.30
1347;DHT22;667;48.796;9.480;2023-06-14T06:07:34;18.40;53.00
1347;DHT22;667;48.796;9.480;2023-06-14T06:10:04;18.50;53.50
1347;DHT22;667;48.796;9.480;2023-06-14T06:12:33;18.70;53.40
1347;DHT22;667;48.796;9.480;2023-06-14T06:15:08;18.70;53.00
1347;DHT22;667;48.796;9.480;2023-06-14T06:17:53;18.90;52.70
1347;DHT22;667;48.796;9.480;2023-06-14T06:20:24;18.90;51.40
1347;DHT22;667;48.796;9.480;2023-06-14T06:23:00;19.00;50.80
1347;DHT22;667;48.796;9.480;2023-06-14T06:25:39;19.10;50.90
1347;DHT22;667;48.796;9.480;2023-06-14T06:28:25;19.20;50.60
1347;DHT22;667;48.796;9.480;2023-06-14T06:31:01;19.20;49.70
1347;DHT22;667;48.796;9.480;2023-06-14T06:33:30;19.30;50.40
1347;DHT22;667;48.796;9.480;2023-06-14T06:36:01;19.50;50.60
1347;DHT22;667;48.796;9.480;2023-06-14T06:38:32;19.60;50.40
1347;DHT22;667;48.796;9.480;2023-06-14T06:41:00;19.60;50.20
1347;DHT22;667;48.796;9.480;2023-06-14T06:43:30;19.70;49.80
1347;DHT22;667;48.796;9.480;2023-06-14T06:45:58;19.80;49.30
1347;DHT22;667;48.796;9.480;2023-06-14T06:48:23;19.90;48.90
1347;DHT22;667;48.796;9.480;2023-06-14T06:50:49;20.00;48.50
1347;DHT22;667;48.796;9.480;2023-06-14T06:53:14;20.00;48.20
1347;DHT22;667;48.796;9.480;2023-06-14T06:55:40;20.10;48.00
1347;DHT22;667;48.796;9.480;2023-06-14T06:58:06;20.10;47.70
1347;DHT22;667;48.796;9.480;2023-06-14T07:00:31;20.20;47.60
1347;DHT22;667;48.796;9.480;2023-06-14T07:02:57;20.30;47.30
1347;DHT22;667;48.796;9.480;2023-06-14T07:05:23;20.30;47.10
1347;DHT22;667;48.796;9.480;2023-06-14T07:07:48;20.40;47.30
1347;DHT22;667;48.796;9.480;2023-06-14T07:10:14;20.40;47.20
1347;DHT22;667;48.796;9.480;2023-06-14T07:12:39;20.50;47.50
1347;DHT22;667;48.796;9.480;2023-06-14T07:15:06;20.60;47.70
1347;DHT22;667;48.796;9.480;2023-06-14T07:17:33;20.70;48.20
1347;DHT22;667;48.796;9.480;2023-06-14T07:19:59;20.80;48.20
1347;DHT22;667;48.796;9.480;2023-06-14T07:22:26;20.90;47.60
1347;DHT22;667;48.796;9.480;2023-06-14T07:24:51;21.00;47.10
1347;DHT22;667;48.796;9.480;2023-06-14T07:27:17;21.10;47.40
1347;DHT22;667;48.796;9.480;2023-06-14T07:29:42;21.20;47.50
1347;DHT22;667;48.796;9.480;2023-06-14T07:32:08;21.30;47.20
1347;DHT22;667;48.796;9.480;2023-06-14T07:34:34;21.30;47.20
1347;DHT22;667;48.796;9.480;2023-06-14T07:36:59;21.40;47.10
1347;DHT22;667;48.796;9.480;2023-06-14T07:39:25;21.50;47.30
1347;DHT22;667;48.796;9.480;2023-06-14T07:41:51;21.60;47.20
1347;DHT22;667;48.796;9.480;2023-06-14T07:44:16;21.60;46.80
1347;DHT22;667;48.796;9.480;2023-06-14T07:46:42;21.70;46.90
1347;DHT22;667;48.796;9.480;2023-06-14T07:49:07;21.80;46.50
1347;DHT22;667;48.796;9.480;2023-06-14T07:51:33;21.90;46.80
1347;DHT22;667;48.796;9.480;2023-06-14T07:53:59;22.00;47.00
1347;DHT22;667;48.796;9.480;2023-06-14T07:56:26;22.00;46.40
1347;DHT22;667;48.796;9.480;2023-06-14T07:58:52;22.10;46.30
1347;DHT22;667;48.796;9.480;2023-06-14T08:01:17;22.10;46.10
1347;DHT22;667;48.796;9.480;2023-06-14T08:03:44;22.30;46.10
1347;DHT22;667;48.796;9.480;2023-06-14T08:06:10;22.30;46.10
1347;DHT22;667;48.796;9.480;2023-06-14T08:08:36;22.30;45.70
1347;DHT22;667;48.796;9.480;2023-06-14T08:11:01;22.40;45.40
1347;DHT22;667;48.796;9.480;2023-06-14T08:13:27;22.50;45.60
1347;DHT22;667;48.796;9.480;2023-06-14T08:15:53;22.70;45.80
1347;DHT22;667;48.796;9.480;2023-06-14T08:18:18;22.70;45.70
1347;DHT22;667;48.796;9.480;2023-06-14T08:20:44;22.70;44.90
1347;DHT22;667;48.796;9.480;2023-06-14T08:23:10;22.80;45.30
1347;DHT22;667;48.796;9.480;2023-06-14T08:25:35;22.90;45.10
1347;DHT22;667;48.796;9.480;2023-06-14T08:28:01;22.90;44.60
1347;DHT22;667;48.796;9.480;2023-06-14T08:30:26;23.10;44.80
1347;DHT22;667;48.796;9.480;2023-06-14T08:32:52;23.10;44.30
1347;DHT22;667;48.796;9.480;2023-06-14T08:35:21;23.10;43.80
1347;DHT22;667;48.796;9.480;2023-06-14T08:37:46;23.20;44.00
1347;DHT22;667;48.796;9.480;2023-06-14T08:40:21;23.20;44.30
1347;DHT22;667;48.796;9.480;2023-06-14T08:42:52;23.40;45.00
1347;DHT22;667;48.796;9.480;2023-06-14T08:45:21;23.60;43.80
1347;DHT22;667;48.796;9.480;2023-06-14T08:47:47;23.70;43.40
1347;DHT22;667;48.796;9.480;2023-06-14T08:50:20;23.80;42.60
1347;DHT22;667;48.796;9.480;2023-06-14T08:52:48;23.90;42.80
1347;DHT22;667;48.796;9.480;2023-06-14T08:55:18;23.90;42.60
1347;DHT22;667;48.796;9.480;2023-06-14T08:57:46;24.00;42.00
1347;DHT22;667;48.796;9.480;2023-06-14T09:00:13;24.10;40.90
1347;DHT22;667;48.796;9.480;2023-06-14T09:02:39;24.20;41.20
1347;DHT22;667;48.796;9.480;2023-06-14T09:05:10;24.20;40.70
1347;DHT22;667;48.796;9.480;2023-06-14T09:07:41;24.30;40.40
1347;DHT22;667;48.796;9.480;2023-06-14T09:10:11;24.50;40.70
1347;DHT22;667;48.796;9.480;2023-06-14T09:12:37;24.50;40.60
1347;DHT22;667;48.796;9.480;2023-06-14T09:15:06;24.70;40.40
1347;DHT22;667;48.796;9.480;2023-06-14T09:17:36;24.80;40.00
1347;DHT22;667;48.796;9.480;2023-06-14T09:20:03;24.80;40.20
1347;DHT22;667;48.796;9.480;2023-06-14T09:22:34;24.90;39.60
1347;DHT22;667;48.796;9.480;2023-06-14T09:25:00;25.00;39.70
1347;DHT22;667;48.796;9.480;2023-06-14T09:27:26;25.10;39.00
1347;DHT22;667;48.796;9.480;2023-06-14T09:29:52;25.20;39.60
1347;DHT22;667;48.796;9.480;2023-06-14T09:32:18;25.30;39.30
1347;DHT22;667;48.796;9.480;2023-06-14T09:34:45;25.50;39.10
1347;DHT22;667;48.796;9.480;2023-06-14T09:37:11;25.60;38.20
1347;DHT22;667;48.796;9.480;2023-06-14T09:39:49;25.70;38.60
1347;DHT22;667;48.796;9.480;2023-06-14T09:42:19;25.80;38.20
1347;DHT22;667;48.796;9.480;2023-06-14T09:44:48;26.00;38.20
1347;DHT22;667;48.796;9.480;2023-06-14T09:47:17;26.00;36.50
1347;DHT22;667;48.796;9.480;2023-06-14T09:49:43;26.10;36.50
1347;DHT22;667;48.796;9.480;2023-06-14T09:52:18;26.10;35.60
1347;DHT22;667;48.796;9.480;2023-06-14T09:54:46;26.20;36.00
1347;DHT22;667;48.796;9.480;2023-06-14T09:57:13;26.20;36.00
1347;DHT22;667;48.796;9.480;2023-06-14T09:59:53;26.20;35.90
1347;DHT22;667;48.796;9.480;2023-06-14T10:02:34;26.20;36.70
1347;DHT22;667;48.796;9.480;2023-06-14T10:05:02;26.10;37.00
1347;DHT22;667;48.796;9.480;2023-06-14T10:07:48;26.00;37.20
1347;DHT22;667;48.796;9.480;2023-06-14T10:10:14;25.90;37.00
1347;DHT22;667;48.796;9.480;2023-06-14T10:12:40;25.80;36.80
1347;DHT22;667;48.796;9.480;2023-06-14T10:15:09;25.80;37.10
1347;DHT22;667;48.796;9.480;2023-06-14T10:17:51;25.80;37.10
1347;DHT22;667;48.796;9.480;2023-06-14T10:20:41;25.80;37.50
1347;DHT22;667;48.796;9.480;2023-06-14T10:23:21;25.70;37.90
1347;DHT22;667;48.796;9.480;2023-06-14T10:25:54;25.70;37.90
1347;DHT22;667;48.796;9.480;2023-06-14T10:28:21;25.70;38.00
1347;DHT22;667;48.796;9.480;2023-06-14T10:31:08;25.60;37.70
1347;DHT22;667;48.796;9.480;2023-06-14T10:34:00;25.60;38.20
1347;DHT22;667;48.796;9.480;2023-06-14T10:36:29;25.50;38.00
1347;DHT22;667;48.796;9.480;2023-06-14T10:39:05;25.50;37.80
1347;DHT22;667;48.796;9.480;2023-06-14T10:41:35;25.50;37.60
1347;DHT22;667;48.796;9.480;2023-06-14T10:46:39;25.50;38.30
1347;DHT22;667;48.796;9.480;2023-06-14T10:49:05;25.50;37.30
1347;DHT22;667;48.796;9.480;2023-06-14T10:51:52;25.60;37.50
1347;DHT22;667;48.796;9.480;2023-06-14T10:54:21;25.60;37.30
1347;DHT22;667;48.796;9.480;2023-06-14T10:56:48;25.50;37.00
1347;DHT22;667;48.796;9.480;2023-06-14T10:59:14;25.40;36.70
1347;DHT22;667;48.796;9.480;2023-06-14T11:04:17;25.40;37.10
1347;DHT22;667;48.796;9.480;2023-06-14T11:06:47;25.30;36.90
1347;DHT22;667;48.796;9.480;2023-06-14T11:09:40;25.40;36.90
1347;DHT22;667;48.796;9.480;2023-06-14T11:12:10;25.60;37.00
1347;DHT22;667;48.796;9.480;2023-06-14T11:14:39;25.70;37.60
1347;DHT22;667;48.796;9.480;2023-06-14T11:17:05;26.00;38.10
1347;DHT22;667;48.796;9.480;2023-06-14T11:19:31;26.20;36.60
1347;DHT22;667;48.796;9.480;2023-06-14T11:21:57;26.30;36.10
1347;DHT22;667;48.796;9.480;2023-06-14T11:24:22;26.50;35.90
1347;DHT22;667;48.796;9.480;2023-06-14T11:26:49;26.60;35.70
1347;DHT22;667;48.796;9.480;2023-06-14T11:29:15;26.70;35.20
1347;DHT22;667;48.796;9.480;2023-06-14T11:31:44;26.80;33.90
1347;DHT22;667;48.796;9.480;2023-06-14T11:34:13;26.90;34.20
1347;DHT22;667;48.796;9.480;2023-06-14T11:36:39;27.00;34.80
1347;DHT22;667;48.796;9.480;2023-06-14T11:39:06;27.00;34.40
1347;DHT22;667;48.796;9.480;2023-06-14T11:41:38;27.00;34.40
1347;DHT22;667;48.796;9.480;2023-06-14T11:44:06;27.00;34.70
1347;DHT22;667;48.796;9.480;2023-06-14T11:46:32;27.10;35.10
1347;DHT22;667;48.796;9.480;2023-06-14T11:48:58;27.30;34.80
1347;DHT22;667;48.796;9.480;2023-06-14T11:51:24;27.40;34.50
1347;DHT22;667;48.796;9.480;2023-06-14T11:53:50;27.40;34.10
1347;DHT22;667;48.796;9.480;2023-06-14T11:56:15;27.40;34.00
1347;DHT22;667;48.796;9.480;2023-06-14T11:58:43;27.40;33.20
1347;DHT22;667;48.796;9.480;2023-06-14T12:01:09;27.40;33.30
1347;DHT22;667;48.796;9.480;2023-06-14T12:03:34;27.50;32.70
1347;DHT22;667;48.796;9.480;2023-06-14T12:06:08;27.50;33.70
1347;DHT22;667;48.796;9.480;2023-06-14T12:08:37;27.60;34.50
1347;DHT22;667;48.796;9.480;2023-06-14T12:11:15;27.60;33.30
1347;DHT22;667;48.796;9.480;2023-06-14T12:13:42;27.70;33.60
1347;DHT22;667;48.796;9.480;2023-06-14T12:16:11;27.80;33.60
1347;DHT22;667;48.796;9.480;2023-06-14T12:18:39;27.80;33.00
1347;DHT22;667;48.796;9.480;2023-06-14T12:21:07;27.80;33.10
1347;DHT22;667;48.796;9.480;2023-06-14T12:23:46;27.90;34.40
1347;DHT22;667;48.796;9.480;2023-06-14T12:26:16;28.10;33.70
1347;DHT22;667;48.796;9.480;2023-06-14T12:28:44;28.10;33.10
1347;DHT22;667;48.796;9.480;2023-06-14T12:31:12;28.10;32.40
1347;DHT22;667;48.796;9.480;2023-06-14T12:33:39;28.20;32.40
1347;DHT22;667;48.796;9.480;2023-06-14T12:36:08;28.20;32.80
1347;DHT22;667;48.796;9.480;2023-06-14T12:38:35;28.20;33.20
1347;DHT22;667;48.796;9.480;2023-06-14T12:41:01;28.20;33.00
1347;DHT22;667;48.796;9.480;2023-06-14T12:43:27;28.10;32.40
1347;DHT22;667;48.796;9.480;2023-06-14T12:45:53;28.10;32.50
1347;DHT22;667;48.796;9.480;2023-06-14T12:48:19;28.00;32.40
1347;DHT22;667;48.796;9.480;2023-06-14T12:50:45;28.00;32.80
1347;DHT22;667;48.796;9.480;2023-06-14T12:53:11;27.90;33.10
1347;DHT22;667;48.796;9.480;2023-06-14T12:55:36;27.80;33.20
1347;DHT22;667;48.796;9.480;2023-06-14T12:58:02;27.70;33.20
1347;DHT22;667;48.796;9.480;2023-06-14T13:00:27;27.60;33.40
1347;DHT22;667;48.796;9.480;2023-06-14T13:02:55;27.50;33.30
1347;DHT22;667;48.796;9.480;2023-06-14T13:05:20;27.40;33.70
1347;DHT22;667;48.796;9.480;2023-06-14T13:07:46;27.20;33.50
1347;DHT22;667;48.796;9.480;2023-06-14T13:10:12;27.10;33.70
1347;DHT22;667;48.796;9.480;2023-06-14T13:12:37;27.00;34.10
1347;DHT22;667;48.796;9.480;2023-06-14T13:15:03;26.90;34.30
1347;DHT22;667;48.796;9.480;2023-06-14T13:17:29;26.90;34.50
1347;DHT22;667;48.796;9.480;2023-06-14T13:19:54;26.90;34.70
1347;DHT22;667;48.796;9.480;2023-06-14T13:22:20;26.90;35.00
1347;DHT22;667;48.796;9.480;2023-06-14T13:24:45;26.80;35.00
1347;DHT22;667;48.796;9.480;2023-06-14T13:27:11;26.90;35.30
1347;DHT22;667;48.796;9.480;2023-06-14T13:29:39;27.00;34.90
1347;DHT22;667;48.796;9.480;2023-06-14T13:32:05;27.00;34.90
1347;DHT22;667;48.796;9.480;2023-06-14T13:34:31;27.00;34.10
1347;DHT22;667;48.796;9.480;2023-06-14T13:36:57;27.10;34.60
1347;DHT22;667;48.796;9.480;2023-06-14T13:39:24;27.10;34.70
1347;DHT22;667;48.796;9.480;2023-06-14T13:41:50;27.30;35.00
1347;DHT22;667;48.796;9.480;2023-06-14T13:44:16;27.30;34.10
1347;DHT22;667;48.796;9.480;2023-06-14T13:46:44;27.40;34.30
1347;DHT22;667;48.796;9.480;2023-06-14T13:49:10;27.40;34.10
1347;DHT22;667;48.796;9.480;2023-06-14T13:51:35;27.40;33.80
1347;DHT22;667;48.796;9.480;2023-06-14T13:54:01;27.50;34.30
1347;DHT22;667;48.796;9.480;2023-06-14T13:56:27;27.60;35.00
1347;DHT22;667;48.796;9.480;2023-06-14T13:58:52;27.70;33.80
1347;DHT22;667;48.796;9.480;2023-06-14T14:01:18;27.70;33.40
1347;DHT22;667;48.796;9.480;2023-06-14T14:03:46;27.70;33.60
1347;DHT22;667;48.796;9.480;2023-06-14T14:06:12;27.70;33.40
1347;DHT22;667;48.796;9.480;2023-06-14T14:08:38;27.60;33.00
1347;DHT22;667;48.796;9.480;2023-06-14T14:11:05;27.60;33.30
1347;DHT22;667;48.796;9.480;2023-06-14T14:13:31;27.50;33.30
1347;DHT22;667;48.796;9.480;2023-06-14T14:15:57;27.30;33.00
1347;DHT22;667;48.796;9.480;2023-06-14T14:18:22;27.20;33.20
1347;DHT22;667;48.796;9.480;2023-06-14T14:20:48;27.20;33.70
1347;DHT22;667;48.796;9.480;2023-06-14T14:23:14;27.10;34.10
1347;DHT22;667;48.796;9.480;2023-06-14T14:25:40;27.10;34.20
1347;DHT22;667;48.796;9.480;2023-06-14T14:28:06;27.10;34.40
1347;DHT22;667;48.796;9.480;2023-06-14T14:30:31;27.00;34.40
1347;DHT22;667;48.796;9.480;2023-06-14T14:32:58;27.00;34.60
1347;DHT22;667;48.796;9.480;2023-06-14T14:35:23;26.90;34.90
1347;DHT22;667;48.796;9.480;2023-06-14T14:37:51;26.90;34.70
1347;DHT22;667;48.796;9.480;2023-06-14T14:40:17;26.90;34.70
1347;DHT22;667;48.796;9.480;2023-06-14T14:42:42;26.80;34.80
1347;DHT22;667;48.796;9.480;2023-06-14T14:45:08;26.80;34.90
1347;DHT22;667;48.796;9.480;2023-06-14T14:47:34;26.70;34.10
1347;DHT22;667;48.796;9.480;2023-06-14T14:50:00;26.60;34.00
1347;DHT22;667;48.796;9.480;2023-06-14T14:52:25;26.60;34.50
1347;DHT22;667;48.796;9.480;2023-06-14T14:54:52;26.60;34.70
1347;DHT22;667;48.796;9.480;2023-06-14T14:57:18;26.60;34.60
1347;DHT22;667;48.796;9.480;2023-06-14T14:59:44;26.60;34.20
1347;DHT22;667;48.796;9.480;2023-06-14T15:02:09;26.60;34.20
1347;DHT22;667;48.796;9.480;2023-06-14T15:04:35;26.70;34.40
1347;DHT22;667;48.796;9.480;2023-06-14T15:07:01;26.70;34.20
1347;DHT22;667;48.796;9.480;2023-06-14T15:09:26;26.80;33.90
1347;DHT22;667;48.796;9.480;2023-06-14T15:11:52;26.80;34.30
1347;DHT22;667;48.796;9.480;2023-06-14T15:14:17;26.80;34.10
1347;DHT22;667;48.796;9.480;2023-06-14T15:16:43;26.90;34.70
1347;DHT22;667;48.796;9.480;2023-06-14T15:19:09;26.90;35.00
1347;DHT22;667;48.796;9.480;2023-06-14T15:21:34;27.00;34.90
1347;DHT22;667;48.796;9.480;2023-06-14T15:24:01;27.00;34.60
1347;DHT22;667;48.796;9.480;2023-06-14T15:26:26;27.00;34.50
1347;DHT22;667;48.796;9.480;2023-06-14T15:28:54;27.00;34.20
1347;DHT22;667;48.796;9.480;2023-06-14T15:31:19;27.00;34.00
1347;DHT22;667;48.796;9.480;2023-06-14T15:33:45;26.90;34.20
1347;DHT22;667;48.796;9.480;2023-06-14T15:36:11;26.80;34.20
1347;DHT22;667;48.796;9.480;2023-06-14T15:38:36;26.80;34.00
1347;DHT22;667;48.796;9.480;2023-06-14T15:41:02;26.70;33.60
1347;DHT22;667;48.796;9.480;2023-06-14T15:43:28;26.70;33.80
1347;DHT22;667;48.796;9.480;2023-06-14T15:45:54;26.70;33.30
1347;DHT22;667;48.796;9.480;2023-06-14T15:48:19;26.70;33.60
1347;DHT22;667;48.796;9.480;2023-06-14T15:50:46;26.70;34.20
1347;DHT22;667;48.796;9.480;2023-06-14T15:53:12;26.70;35.00
1347;DHT22;667;48.796;9.480;2023-06-14T15:55:37;26.80;34.80
1347;DHT22;667;48.796;9.480;2023-06-14T15:58:03;26.80;34.70
1347;DHT22;667;48.796;9.480;2023-06-14T16:00:28;26.80;34.30
1347;DHT22;667;48.796;9.480;2023-06-14T16:02:54;26.80;34.30
1347;DHT22;667;48.796;9.480;2023-06-14T16:05:19;26.80;34.30
1347;DHT22;667;48.796;9.480;2023-06-14T16:07:45;26.90;34.00
1347;DHT22;667;48.796;9.480;2023-06-14T16:10:11;26.80;33.40
1347;DHT22;667;48.796;9.480;2023-06-14T16:12:37;26.80;33.30
1347;DHT22;667;48.796;9.480;2023-06-14T16:15:02;26.80;33.40
1347;DHT22;667;48.796;9.480;2023-06-14T16:17:28;26.80;33.50
1347;DHT22;667;48.796;9.480;2023-06-14T16:19:54;26.80;33.90
1347;DHT22;667;48.796;9.480;2023-06-14T16:22:19;26.80;33.70
1347;DHT22;667;48.796;9.480;2023-06-14T16:24:45;26.80;33.60
1347;DHT22;667;48.796;9.480;2023-06-14T16:27:10;26.80;33.60
1347;DHT22;667;48.796;9.480;2023-06-14T16:29:36;26.80;33.50
1347;DHT22;667;48.796;9.480;2023-06-14T16:32:02;26.80;33.30
1347;DHT22;667;48.796;9.480;2023-06-14T16:34:28;26.80;33.40
1347;DHT22;667;48.796;9.480;2023-06-14T16:36:56;26.70;33.50
1347;DHT22;667;48.796;9.480;2023-06-14T16:39:21;26.60;33.70
1347;DHT22;667;48.796;9.480;2023-06-14T16:41:47;26.60;34.20
1347;DHT22;667;48.796;9.480;2023-06-14T16:44:13;26.50;34.50